x

Yucatan Basin - 120 Nm Ese Of Cozumel, Mx (42056) Wave Buoy

8:50 - Tue 28th Mar 2017 All times are CST. -6 hours from GMT.

  • Sig Wave height 3.0ft
  • Swell Direction
  • Peak Period 6s
  • Average Period 4s
  • Wind
    18mph, 20mph gusts
  • Sea Temp 80°f
  • Air Temp 80°f
  • Sea Pressure 1014.1mb
  •  Yucatan Basin - 120 Nm Ese Of Cozumel, Mx
  •  Yucatan Basin - 120 Nm Ese Of Cozumel, Mx

More Historic Weather Station data

Upgrade to MSW Pro to gain access to the past 30 days of data for over 8000 Wavebouys and Weather Stations around the globe.

Join Pro

Comparision Forecast

View Surf forecast
   
mar. 03/28 8:50 3ft 6s 4s 18 20 mph 1014.1mb 80f 80f
8:40  -   -   -  18 20 mph 1014mb 80f 80f
8:30  -   -   -  16 20 mph 1013.9mb 80f 80f
8:20  -   -   -  18 20 mph 1013.8mb 80f 80f
8:10  -   -   -  18 20 mph 1013.5mb 80f 80f
8:00  -   -   -  16 20 mph 1013.5mb 80f 80f
7:50 3ft 5s 5s 16 20 mph 1013.5mb 80f 80f
7:40 3ft  -  5s 13 20 mph 1013.4mb 80f 79f
7:30  -   -   -  11 18 mph 1013.5mb 80f 79f
7:20  -   -   -  9 13 mph 1013.4mb 80f 78f
7:10  -   -   -  13 22 mph 1013.3mb 80f 79f
7:00  -   -   -  11 20 mph 1013mb 80f 80f
6:50 3.5ft 5s 5s 11 13 mph 1013mb 80f 80f
6:40 3.5ft  -  5s 11 13 mph 1013mb 80f 80f
6:30  -   -   -  11
mph
1013mb 80f 80f
6:20  -   -   -  9 13 mph 1013mb 80f 80f
6:10  -   -   -  11 13 mph 1013mb 80f 80f
6:00  -   -   -  11 16 mph 1012.9mb 80f 80f
5:50 3.5ft 6s 4s 13 16 mph 1012.8mb 80f 80f
5:40 3.5ft  -  4s 13 16 mph 1012.8mb 80f 80f
5:30  -   -   -  11 16 mph 1012.8mb 80f 80f
5:20  -   -   -  13 16 mph 1012.6mb 80f 80f
5:10  -   -   -  13 16 mph 1012.6mb 80f 80f
5:00  -   -   -  13 16 mph 1012.6mb 80f 80f
4:50 3.5ft 6s 5s 11 16 mph 1012.6mb 80f 80f
4:40 3.5ft  -  5s 13 16 mph 1012.6mb 80f 80f
4:30  -   -   -  11 16 mph 1012.5mb 80f 80f
4:20  -   -   -  13 16 mph 1012.5mb 80f 80f
4:10  -   -   -  13 16 mph 1012.5mb 80f 80f
4:00  -   -   -  11 16 mph 1012.5mb 80f 80f
3:40  -   -   -  11 13 mph 1012.5mb 80f 80f
3:30  -   -   -  13 16 mph 1012.5mb 80f 80f
3:20  -   -   -  11 16 mph 1012.5mb 80f 80f
3:10  -   -   -  13 16 mph 1012.5mb 80f 80f
3:00  -   -   -  13 16 mph 1012.6mb 80f 80f
9:30  -   -   -  18 20 mph 1015.1mb 80f 79f
9:20  -   -   -  18 22 mph 1015.1mb 80f 79f
9:10  -   -   -  18 20 mph 1015.1mb 80f 79f
9:00  -   -   -  18 22 mph 1015.1mb 80f 79f
8:50 4.5ft 7s 5s 18 25 mph 1015mb 80f 79f
8:40  -   -   -  18 22 mph 1015mb 80f 79f
8:30  -   -   -  18 22 mph 1015mb 80f 79f
8:20  -   -   -  18 22 mph 1015mb 80f 79f
8:10  -   -   -  18 22 mph 1014.9mb 80f 79f
8:00  -   -   -  18 22 mph 1014.8mb 80f 79f
7:50 4.5ft 7s 5s 18 22 mph 1014.6mb 80f 79f
7:40 4.5ft  -  5s 18 22 mph 1014.5mb 80f 79f
7:30  -   -   -  18 22 mph 1014.5mb 80f 79f
7:20  -   -   -  18 22 mph 1014.4mb 80f 79f
7:10  -   -   -  18 22 mph 1014.3mb - 79f
7:00  -   -   -  18 22 mph 1014mb 80f 79f
6:50 4ft 7s 5s 18 22 mph 1014mb 80f 79f
6:40 4ft  -  5s 18 22 mph 1013.9mb 80f 79f
6:30  -   -   -  18 22 mph 1013.8mb 80f 79f
6:20  -   -   -  18 22 mph 1013.6mb 80f 79f
6:10  -   -   -  18 22 mph 1013.5mb 80f 79f
6:00  -   -   -  18 22 mph 1013.5mb 80f 79f
5:50 4ft 7s 5s 18 20 mph 1013.3mb 80f 79f
5:40 4ft  -  5s 18 22 mph 1013.1mb 80f 79f
5:30  -   -   -  18 22 mph 1013mb 80f 79f
5:20  -   -   -  18 20 mph 1013mb 80f 79f
5:10  -   -   -  16 20 mph 1012.9mb 80f 79f
5:00  -   -   -  18 20 mph 1012.6mb 80f 79f
4:50 3.5ft 7s 5s 16 22 mph 1012.5mb 80f 79f
4:40  -   -   -  16 20 mph 1012.4mb 80f 79f
4:30  -   -   -  16 18 mph 1012.5mb 80f 79f
4:20  -   -   -  13 18 mph 1012.5mb 80f 79f
4:10  -   -   -  13 18 mph 1012.4mb 80f 79f
4:00  -   -   -  13 16 mph 1012.4mb 80f 79f
3:50 4.5ft 7s 5s 13 16 mph 1012.3mb 80f 79f
3:40  -   -   -  11 16 mph 1012.3mb 80f 79f
3:30  -   -   -  9 13 mph 1012.3mb 80f 79f
3:20  -   -   -  9
mph
1012.1mb 80f 78f
3:10  -   -   -  7 9 mph 1012.1mb 80f 78f
3:00  -   -   -  7 9 mph 1012.3mb 80f 78f
2:50 4ft 7s 5s 7 9 mph 1012.3mb 80f 78f
2:40 4ft  -  5s 7 9 mph 1012.1mb 80f 78f
2:30  -   -   -  7 9 mph 1012.1mb 80f 78f
2:20  -   -   -  7 9 mph 1012.1mb 80f 78f
2:10  -   -   -  9 11 mph 1012.1mb 80f 78f
2:00  -   -   -  9 11 mph 1012.4mb 80f 78f
1:50 4.5ft 7s 5s 9 11 mph 1012.5mb 80f 78f
1:40  -   -   -  9 11 mph 1012.5mb 80f 78f
1:30  -   -   -  9 11 mph 1012.5mb 80f 79f
1:20  -   -   -  9 13 mph 1012.8mb 80f 78f
1:10  -   -   -  11 13 mph 1012.9mb 80f 78f
1:00  -   -   -  11 13 mph 1012.9mb 80f 79f
12:50 4.5ft 7s 5s 11 13 mph 1013mb 80f 79f
12:40  -   -   -  11 13 mph 1013mb 80f 79f
12:30  -   -   -  11 13 mph 1013.1mb 80f 79f
12:20  -   -   -  11 16 mph 1013.3mb 80f 79f
12:10  -   -   -  11 13 mph 1013.3mb 80f 79f
12:00  -   -   -  13 16 mph 1013.5mb 80f 79f
lun. 03/27 11:50 4.5ft 7s 5s 13 18 mph 1013.5mb 80f 79f
11:40 4.5ft  -  5s 13 18 mph 1013.5mb 80f 79f
11:30  -   -   -  13 18 mph 1013.5mb 80f 79f
11:20  -   -   -  13 18 mph 1013.5mb 80f 79f
11:10  -   -   -  13 18 mph 1013.5mb 80f 79f
11:00  -   -   -  13 18 mph 1013.8mb 80f 79f
10:50 4.5ft 7s 5s 16 18 mph 1013.8mb 80f 79f
10:40  -   -   -  13 18 mph 1013.9mb 80f 79f
10:30  -   -   -  13 18 mph 1013.9mb 80f 79f
10:20  -   -   -  13 18 mph 1014mb 80f 79f
10:10  -   -   -  13 18 mph 1014mb 80f 79f
10:00  -   -   -  13 18 mph 1014.1mb 80f 79f
9:50 4.5ft 7s 5s 16 18 mph 1014.1mb 80f 80f
9:40 4.5ft  -  5s 16 18 mph 1014.1mb 80f 79f
9:30  -   -   -  16 18 mph 1014.3mb 80f 79f
9:20  -   -   -  13 18 mph 1014.1mb 80f 79f
9:10  -   -   -  16 18 mph 1014mb 80f 79f
9:00  -   -   -  13 18 mph 1014mb 80f 79f
8:50 4.5ft 6s 5s 16 18 mph 1014mb 80f 79f
8:40 4.5ft  -  5s 16 18 mph 1013.9mb 80f 79f
8:30  -   -   -  16 18 mph 1013.9mb 80f 79f
8:20  -   -   -  16 20 mph 1013.8mb 80f 79f
8:10  -   -   -  16 20 mph 1013.5mb 80f 79f
8:00  -   -   -  16 20 mph 1013.5mb 80f 79f
7:50 4.5ft 6s 5s 16 20 mph 1013.5mb 80f 79f
7:40 4.5ft  -  5s 18 20 mph 1013.4mb 80f 79f
7:30  -   -   -  18 20 mph 1013.3mb 80f 79f
7:20  -   -   -  18 22 mph 1013.1mb 80f 79f
7:10  -   -   -  18 22 mph 1013mb 80f 79f
7:00  -   -   -  20 22 mph 1013mb 80f 80f
6:50 4ft 6s 5s 18 22 mph 1012.9mb 80f 79f
6:40  -   -   -  18 20 mph 1012.9mb 80f 79f
6:30  -   -   -  16 18 mph 1012.8mb 80f 79f
6:20  -   -   -  16 20 mph 1012.6mb 80f 79f
6:10  -   -   -  13 18 mph 1012.5mb 80f 79f
6:00  -   -   -  16 18 mph 1012.5mb 80f 79f
5:50 4ft 6s 4s 16 18 mph 1012.5mb 80f 79f
5:40 4ft  -  4s 16 20 mph 1012.5mb 80f 79f
5:30  -   -   -  18 22 mph 1012.4mb 80f 79f
5:20  -   -   -  18 22 mph 1012.4mb 80f 79f
5:10  -   -   -  18 22 mph 1012.4mb 80f 79f
5:00  -   -   -  18 22 mph 1012.5mb 80f 79f
4:50 3.5ft 6s 4s 18 22 mph 1012.4mb 80f 79f
4:40  -   -   -  18 22 mph 1012.5mb 80f 79f
4:30  -   -   -  18 20 mph 1012.4mb 80f 79f
4:20  -   -   -  16 20 mph 1012.5mb 80f 79f
4:10  -   -   -  16 18 mph 1012.4mb 80f 79f
4:00  -   -   -  16 20 mph 1012.5mb 80f 79f
3:50 3.5ft 6s 4s 16 20 mph 1012.5mb 80f 79f
3:40 3.5ft  -  4s 16 20 mph 1012.6mb 80f 79f
3:30  -   -   -  16 18 mph 1012.6mb 80f 79f
3:20  -   -   -  16 20 mph 1012.9mb 80f 79f
3:10  -   -   -  16 20 mph 1012.8mb 80f 79f
3:00  -   -   -  16 20 mph 1012.9mb 80f 79f
2:50 3.5ft 6s 5s 16 20 mph 1013mb 80f 79f
2:40  -   -   -  16 18 mph 1013mb 80f 79f
2:30  -   -   -  16 20 mph 1013.1mb 80f 79f
2:20  -   -   -  16 18 mph 1013.3mb 80f 79f
2:10  -   -   -  16 18 mph 1013.4mb 80f 79f
2:00  -   -   -  13 16 mph 1013.5mb 80f 79f
1:50 3.5ft 6s 5s 13 18 mph 1013.8mb 80f 79f
1:40 3.5ft  -  5s 13 18 mph 1013.9mb 80f 79f
1:30  -   -   -  13 18 mph 1013.9mb - 79f
1:20  -   -   -  16 18 mph 1014mb 80f 79f
1:10  -   -   -  16 18 mph 1014mb 80f 79f
1:00  -   -   -  16 20 mph 1014.1mb 80f 79f
12:50 3.5ft 6s 4s 16 18 mph 1014.3mb 80f 79f
12:40 3.5ft  -  4s 16 20 mph 1014.5mb 80f 79f
12:30  -   -   -  16 20 mph 1014.5mb 80f 80f
12:20  -   -   -  16 18 mph 1014.5mb 80f 80f
12:10  -   -   -  16 18 mph 1014.6mb 80f 80f
12:00  -   -   -  13 18 mph 1015mb 80f 80f
11:50 4ft 6s 5s 16 18 mph 1015mb 80f 80f
11:40  -   -   -  13 18 mph 1015.1mb 80f 80f
11:30  -   -   -  13 18 mph 1015.5mb 80f 80f
11:20  -   -   -  16 18 mph 1015.4mb 80f 79f
11:10  -   -   -  16 20 mph 1015.4mb 80f 80f
11:00  -   -   -  16 18 mph 1015.5mb 80f 80f
10:50 3.5ft 7s 5s 13 18 mph 1015.5mb 80f 80f
10:40  -   -   -  16 18 mph 1015.6mb 80f 80f
10:30  -   -   -  13 18 mph 1015.8mb 80f 80f
10:20  -   -   -  13 16 mph 1015.8mb 80f 80f
10:10  -   -   -  13 18 mph 1015.9mb 80f 80f
10:00  -   -   -  13 16 mph 1015.9mb 80f 80f
9:50 4ft 7s 5s 11 16 mph 1015.9mb 80f 79f
9:40 4ft  -  5s 13 16 mph 1015.8mb 80f 80f
9:30  -   -   -  13 16 mph 1015.8mb 80f 80f
9:20  -   -   -  13 16 mph 1015.9mb 80f 80f
9:10  -   -   -  13 18 mph 1015.8mb 80f 80f
9:00  -   -   -  13 18 mph 1015.6mb 80f 80f
8:50 3.5ft 7s 5s 16 18 mph 1015.5mb 80f 80f
8:40 3.5ft  -  5s 16 20 mph 1015.5mb 80f 80f
8:30  -   -   -  13 18 mph 1015.5mb 80f 80f
8:20  -   -   -  13 18 mph 1015.5mb 80f 80f
8:10  -   -   -  16 18 mph 1015.4mb 80f 80f
8:00  -   -   -  13 18 mph 1015.1mb 80f 80f
7:50 3.5ft 7s 5s 16 20 mph 1015.1mb 80f 79f
7:40  -   -   -  16 18 mph 1015.1mb 80f 79f
7:30  -   -   -  13 18 mph 1015mb 80f 79f
7:20  -   -   -  16 18 mph 1014.9mb 80f 79f
7:10  -   -   -  16 18 mph 1014.8mb 80f 79f
7:00  -   -   -  16 18 mph 1014.6mb 80f 79f
6:50 3.5ft 7s 5s 16 18 mph 1014.5mb 80f 79f
6:40 3.5ft  -  5s 13 16 mph 1014.5mb 80f 79f
6:30  -   -   -  13 18 mph 1014.3mb 80f 79f
6:20  -   -   -  13 18 mph 1014.3mb 80f 79f
6:10  -   -   -  16 18 mph 1014mb - 79f
6:00  -   -   -  16 18 mph 1014mb 80f 79f
5:50 4ft 7s 5s 13 18 mph 1013.9mb 80f 79f
5:40 4ft  -  5s 16 18 mph 1013.5mb 80f 78f
5:30  -   -   -  16 18 mph 1013.5mb 80f 78f
5:20  -   -   -  16 18 mph 1013.3mb 80f 79f
5:10  -   -   -  16 20 mph 1013.1mb 80f 78f
5:00  -   -   -  16 20 mph 1013.1mb 80f 78f
4:50 3.5ft 7s 5s 16 22 mph 1013mb 80f 78f
4:40 3.5ft  -  5s 16 20 mph 1013mb 80f 78f
4:30  -   -   -  13 18 mph 1013mb 80f 78f
4:20  -   -   -  13 18 mph 1013mb 80f 78f
4:10  -   -   -  13 18 mph 1012.9mb 80f 78f
4:00  -   -   -  13 16 mph 1012.9mb 80f 78f
3:50 3.5ft 7s 5s 11 16 mph 1012.8mb 80f 78f
3:40 3.5ft  -  5s 11 13 mph 1012.9mb 80f 78f
3:30  -   -   -  11 16 mph 1012.8mb 80f 78f
3:20  -   -   -  13 16 mph 1012.8mb 80f 78f
3:10  -   -   -  13 16 mph 1012.9mb 80f 78f
3:00  -   -   -  13 16 mph 1012.9mb 80f 79f
2:50 3.5ft 7s 5s 13 16 mph 1013mb 80f 78f
2:40 3.5ft  -  5s 13 16 mph 1013mb 80f 79f
2:30  -   -   -  13 16 mph 1013mb 80f 78f
2:20  -   -   -  13 16 mph 1013mb 80f 78f
2:10  -   -   -  13 16 mph 1013mb 80f 79f
2:00  -   -   -  13 16 mph 1013mb 80f 78f
1:50 4ft 7s 5s 13 16 mph 1013mb 80f 79f
1:40 4ft  -  5s 13 16 mph 1013mb 80f 78f
1:30  -   -   -  13 16 mph 1013.1mb 80f 78f
1:20  -   -   -  13 16 mph 1013.4mb 80f 78f
1:10  -   -   -  11 16 mph 1013.5mb 80f 78f
1:00  -   -   -  13 16 mph 1013.6mb 80f 78f
12:50 3.5ft 7s 5s 13 16 mph 1013.8mb 80f 79f
12:40  -   -   -  11 13 mph 1013.9mb 80f 78f
12:30  -   -   -  11 13 mph 1014.1mb 80f 79f
12:20  -   -   -  11 13 mph 1014.3mb 80f 79f
12:10  -   -   -  11 16 mph 1014.5mb 80f 79f
12:00  -   -   -  11 13 mph 1014.5mb - 79f
dim. 03/26 11:50 4ft 7s 5s 11 13 mph 1014.5mb 80f 79f
11:40  -   -   -  11 16 mph 1014.6mb 80f 79f
11:30  -   -   -  11 13 mph 1014.8mb 80f 79f
11:20  -   -   -  11 16 mph 1014.9mb 80f 79f
11:10  -   -   -  11 16 mph 1014.9mb 80f 79f
11:00  -   -   -  13 16 mph 1015mb 80f 79f
10:50 4ft 7s 5s 13 16 mph 1015mb 80f 79f
10:40 4ft  -  5s 13 16 mph 1015mb 80f 79f
10:30  -   -   -  13 16 mph 1015mb 80f 79f
10:20  -   -   -  13 16 mph 1015mb 80f 79f
10:10  -   -   -  11 16 mph 1015.1mb 80f 79f
10:00  -   -   -  13 16 mph 1015.1mb 80f 79f
9:50 4.5ft 7s 5s 13 16 mph 1015.3mb 80f 79f
9:40  -   -   -  13 18 mph 1015.1mb 80f 79f
9:30  -   -   -  13 18 mph 1015.3mb 80f 79f
9:20  -   -   -  16 18 mph 1015.4mb 80f 79f
9:10  -   -   -  16 18 mph 1015.3mb 80f 79f
9:00  -   -   -  16 18 mph 1015.3mb 80f 79f
8:50 4.5ft 7s 5s 16 18 mph 1015.3mb 80f 79f
8:40 4.5ft  -  5s 13 18 mph 1015.3mb 80f 79f
8:30  -   -   -  16 18 mph 1015.3mb 80f 79f
8:20  -   -   -  16 18 mph 1015.4mb 80f 79f
8:10  -   -   -  16 20 mph 1015.4mb 80f 79f
8:00  -   -   -  13 18 mph 1015.4mb 80f 79f
7:50 4.5ft 8s 5s 13 16 mph 1015.3mb 80f 79f
7:40  -   -   -  13 18 mph 1015.1mb 80f 79f
7:30  -   -   -  13 18 mph 1015mb 80f 79f
7:20  -   -   -  13 18 mph 1015mb 80f 79f
7:10  -   -   -  13 18 mph 1014.9mb 80f 79f
7:00  -   -   -  13 16 mph 1014.8mb 80f 79f
6:50 4ft 6s 5s 13 16 mph 1014.6mb 80f 79f
6:40  -   -   -  13 16 mph 1014.5mb 80f 79f
6:30  -   -   -  13 16 mph 1014.5mb 80f 79f
6:20  -   -   -  11 13 mph 1014.5mb 80f 79f
6:10  -   -   -  11 16 mph 1014.5mb 80f 79f
6:00  -   -   -  11 13 mph 1014.5mb 80f 79f
5:50 3.5ft 7s 5s 11 16 mph 1014.5mb 80f 79f
5:40 3.5ft  -  5s 11 13 mph 1014.5mb 80f 79f
5:30  -   -   -  11 13 mph 1014.4mb - 79f
5:20  -   -   -  11 13 mph 1014.3mb 80f 79f
5:10  -   -   -  11 13 mph 1014.1mb 80f 79f
5:00  -   -   -  11 13 mph 1014.1mb 80f 79f
4:50 3.5ft 6s 5s 13 16 mph 1014.1mb 80f 79f
4:40 3.5ft  -  5s 13 18 mph 1014mb 80f 79f
4:30  -   -   -  13 16 mph 1014mb 80f 79f
4:20  -   -   -  13 18 mph 1014mb 80f 79f
4:10  -   -   -  13 16 mph 1013.9mb 80f 79f
4:00  -   -   -  13 18 mph 1013.9mb 80f 79f
3:50 3.5ft 6s 5s 16 18 mph 1013.9mb 80f 79f
3:40  -   -   -  13 18 mph 1013.9mb 80f 79f
3:30  -   -   -  13 16 mph 1013.9mb 80f 79f
3:20  -   -   -  13 18 mph 1013.9mb 80f 79f
3:10  -   -   -  13 18 mph 1013.9mb 80f 79f
3:00  -   -   -  13 16 mph 1014mb 80f 78f
2:50 3.5ft 7s 5s 13 18 mph 1013.9mb 80f 79f
2:40 3.5ft  -  5s 13 18 mph 1014mb 80f 79f
2:30  -   -   -  13 16 mph 1014mb 80f 79f
2:20  -   -   -  11 13 mph 1014mb 80f 79f
2:10  -   -   -  11 16 mph 1014.1mb 80f 79f
2:00  -   -   -  11 13 mph 1014.1mb 81f 79f
1:50 3.5ft 7s 5s 11 13 mph 1014.3mb 81f 79f
1:40 3.5ft  -  5s 11 13 mph 1014.3mb 80f 79f
1:30  -   -   -  11 13 mph 1014.4mb 81f 79f
1:20  -   -   -  11 13 mph 1014.5mb 81f 79f
1:10  -   -   -  11 16 mph 1014.5mb 80f 79f
1:00  -   -   -  11 16 mph 1014.6mb 80f 79f
12:50 3.5ft 8s 5s 13 16 mph 1014.6mb 80f 79f
12:40  -   -   -  11 16 mph 1014.8mb 80f 79f
12:30  -   -   -  11 16 mph 1014.9mb 80f 79f
12:20  -   -   -  11 13 mph 1015mb 80f 79f
12:10  -   -   -  11 16 mph 1015mb 80f 79f
12:00  -   -   -  11 13 mph 1015.3mb 80f 79f
11:50 3.5ft 7s 5s 11 16 mph 1015.5mb 80f 79f
11:40 3.5ft  -  5s 11 13 mph 1015.5mb 80f 79f
11:30  -   -   -  9 11 mph 1015.8mb 80f 79f
11:20  -   -   -  9 11 mph 1015.8mb 80f 78f
11:10  -   -   -  7 9 mph 1015.9mb 80f 78f
11:00  -   -   -  7 9 mph 1016mb 80f 78f
10:50 4ft 7s 5s 7 9 mph 1016mb - 77f
10:40 4ft  -  5s 7 9 mph 1016.3mb 80f 77f
10:30  -   -   -  11 18 mph 1016.4mb 80f 77f
10:20  -   -   -  18 22 mph 1016.4mb 80f 77f
10:10  -   -   -  20 25 mph 1016.4mb - 78f
10:00  -   -   -  18 22 mph 1016.4mb 80f 78f
9:50 3.5ft 7s 5s 18 22 mph 1016.4mb 80f 78f
9:40  -   -   -  16 22 mph 1016.3mb 80f 79f
9:30  -   -   -  13 18 mph 1016.4mb 80f 79f
9:20  -   -   -  13 18 mph 1016.4mb 80f 79f
9:10  -   -   -  16 20 mph 1016.3mb 80f 79f
9:00  -   -   -  16 20 mph 1016.1mb 80f 79f
8:50 3.5ft 7s 5s 16 18 mph 1016.1mb 80f 79f
8:40 3.5ft  -  5s 16 18 mph 1016mb 80f 79f
8:30  -   -   -  16 20 mph 1016mb 80f 79f
8:20  -   -   -  16 20 mph 1016mb 80f 79f
8:10  -   -   -  16 20 mph 1016mb 80f 79f
8:00  -   -   -  16 22 mph 1015.9mb 80f 79f
7:50 3.5ft  -  5s 18 20 mph 1015.8mb 80f 79f
7:40 3.5ft  -  5s 16 20 mph 1015.6mb 80f 79f
7:30  -   -   -  16 18 mph 1015.5mb 80f 78f
7:20  -   -   -  13 18 mph 1015.5mb 80f 78f
7:10  -   -   -  16 22 mph 1015.3mb 80f 79f
7:00  -   -   -  18 20 mph 1015.1mb 80f 79f
6:50 3.5ft 7s 5s 16 20 mph 1015.1mb 80f 79f
6:40 3.5ft  -  5s 16 20 mph 1015mb - 79f
6:30  -   -   -  16 20 mph 1014.9mb 80f 79f
6:20  -   -   -  18 22 mph 1014.8mb 80f 78f
6:10  -   -   -  18 22 mph 1014.6mb 80f 78f
6:00  -   -   -  18 22 mph 1014.5mb 80f 78f
5:50 4ft 7s 5s 18 25 mph 1014.5mb 80f 78f
5:40 4ft  -  5s 18 25 mph 1014.5mb 80f 79f
5:30  -   -   -  16 18 mph 1014.5mb 80f 79f
5:20  -   -   -  13 18 mph 1014.4mb 80f 79f
5:10  -   -   -  16 18 mph 1014.3mb 80f 79f
5:00  -   -   -  13 18 mph 1014.3mb 80f 79f
4:50 4ft 8s 5s 13 18 mph 1014.1mb 80f 79f
4:40 4ft  -  5s 13 18 mph 1014mb 80f 79f
4:30  -   -   -  13 16 mph 1014mb 80f 79f
4:20  -   -   -  13 16 mph 1013.9mb 80f 78f
4:10  -   -   -  13 18 mph 1013.9mb 80f 79f
4:00  -   -   -  13 16 mph 1013.9mb 80f 79f
3:50 4.5ft 8s 5s 13 18 mph 1013.9mb 80f 78f
3:40 4.5ft  -  5s 11 16 mph 1013.9mb 80f 78f
3:30  -   -   -  13 18 mph 1013.8mb 80f 78f
3:20  -   -   -  13 16 mph 1013.9mb 80f 78f
3:10  -   -   -  13 18 mph 1013.9mb 80f 78f
3:00  -   -   -  13 18 mph 1013.6mb 80f 78f
2:50 4.5ft 8s 5s 13 18 mph 1013.8mb 80f 78f
2:40 4.5ft  -  5s 13 16 mph 1013.6mb 80f 78f
2:30  -   -   -  13 18 mph 1013.9mb 80f 78f
2:20  -   -   -  13 18 mph 1013.9mb 80f 78f
2:10  -   -   -  11 13 mph 1014mb 80f 78f
2:00  -   -   -  11 16 mph 1014mb - 78f
1:50 4.5ft 8s 6s 13 18 mph 1014.1mb 80f 78f
1:40  -   -   -  11 16 mph 1014.1mb 80f 78f
1:30  -   -   -  11 13 mph 1014.1mb 80f 78f
1:20  -   -   -  11 16 mph 1014.4mb 80f 78f
1:10  -   -   -  11 16 mph 1014.5mb 80f 78f
1:00  -   -   -  11 13 mph 1014.5mb 80f 78f
12:50 5ft 8s 6s 9 13 mph 1014.6mb 80f 78f
12:40 5ft  -  6s 11 13 mph 1014.6mb 80f 79f
12:30  -   -   -  11 13 mph 1014.9mb 80f 78f
12:20  -   -   -  9 13 mph 1015mb 80f 78f
12:10  -   -   -  11 13 mph 1015mb 80f 78f
12:00  -   -   -  9 13 mph 1015mb 80f 78f
sam. 03/25 11:50 5ft 8s 6s 9 13 mph 1015.1mb 80f 78f
11:40 5ft  -  6s 9 13 mph 1015.5mb 80f 78f
11:30  -   -   -  11 16 mph 1015.5mb 80f 78f
11:20  -   -   -  11 16 mph 1015.5mb 80f 78f
11:10  -   -   -  9 13 mph 1015.5mb 80f 79f
11:00  -   -   -  11 16 mph 1015.6mb 80f 79f
10:50 5.5ft 8s 6s 11 13 mph 1015.6mb 80f 79f
10:40  -   -   -  11 13 mph 1015.9mb 80f 79f
10:30  -   -   -  11 13 mph 1015.9mb 80f 79f
10:20  -   -   -  11 13 mph 1015.9mb 80f 79f
10:10  -   -   -  9 13 mph 1015.9mb 80f 79f
10:00  -   -   -  11 13 mph 1015.9mb 80f 79f
9:50 5ft 8s 6s 11 13 mph 1016mb 80f 79f
9:40 5ft  -  6s 11 16 mph 1016mb 80f 79f
9:30  -   -   -  11 16 mph 1016mb 80f 79f
9:20  -   -   -  11 13 mph 1016mb 80f 79f
9:10  -   -   -  11 16 mph 1016.1mb 80f 79f
9:00  -   -   -  11 16 mph 1016mb 80f 79f
8:50 5ft 7s 6s 13 18 mph 1016mb 80f 79f
8:40  -   -   -  13 18 mph 1016mb 80f 79f
8:30  -   -   -  13 16 mph 1016mb 80f 79f
8:20  -   -   -  13 18 mph 1016mb 80f 79f
8:10  -   -   -  13 16 mph 1016mb 80f 79f
8:00  -   -   -  13 16 mph 1015.9mb 80f 79f
7:50 5ft 8s 5s 13 18 mph 1015.9mb 80f 79f
7:40  -   -   -  13 18 mph 1015.9mb 80f 79f
7:30  -   -   -  13 16 mph 1015.9mb 80f 79f
7:20  -   -   -  13 18 mph 1015.9mb 80f 79f
7:10  -   -   -  13 18 mph 1015.5mb 80f 80f
7:00  -   -   -  13 18 mph 1015.5mb 80f 79f
6:50 5ft  -  6s 13 18 mph 1015.4mb 80f 79f
6:40 5ft 7s  -   -  mph - - -
6:30  -   -   -  13 18 mph 1015.1mb 80f 79f
6:20  -   -   -  13 18 mph 1015mb 80f 79f
6:10  -   -   -  16 18 mph 1015mb 80f 79f
6:00  -   -   -  13 18 mph 1014.8mb 80f 79f
5:50 5.5ft 6s 6s 16 18 mph 1014.6mb 80f 79f
5:40 5.5ft  -  6s 16 18 mph 1014.6mb 80f 79f
5:30  -   -   -  16 18 mph 1014.6mb 80f 79f
5:20  -   -   -  16 20 mph 1014.5mb 80f 79f
5:10  -   -   -  16 20 mph 1014.4mb 80f 79f
5:00  -   -   -  16 20 mph 1014.5mb 80f 79f
4:50 5ft 7s 6s 13 18 mph 1014.4mb 80f 80f
4:40  -   -   -  13 18 mph 1014.4mb 80f 80f
4:30  -   -   -  16 18 mph 1014.4mb 80f 80f
4:20  -   -   -  13 18 mph 1014.5mb 80f 80f
4:10  -   -   -  13 18 mph 1014.5mb 80f 79f
4:00  -   -   -  11 16 mph 1014.4mb 80f 79f
3:50 4.5ft 7s 5s 11 18 mph 1014.4mb 80f 78f
3:40 4.5ft  -  5s 16 20 mph 1014.4mb 80f 79f
3:30  -   -   -  11 16 mph 1014.5mb 80f 79f
3:20  -   -   -  13 16 mph 1014.6mb 80f 79f
3:10  -   -   -  13 16 mph 1014.6mb 80f 79f
3:00  -   -   -  13 16 mph 1014.9mb 80f 79f
2:50 4.5ft 7s 5s 16 18 mph 1015mb 80f 79f
2:40  -   -   -  16 20 mph 1015mb 80f 79f
2:30  -   -   -  16 20 mph 1015.1mb 80f 79f
2:20  -   -   -  18 20 mph 1015.4mb 80f 79f
2:10  -   -   -  13 18 mph 1015.5mb 80f 80f
2:00  -   -   -  9 13 mph 1015.8mb 80f 79f
1:50 4.5ft 8s 5s 9 11 mph 1015.9mb 80f 79f
1:40  -   -   -  11 13 mph 1016mb 80f 79f
1:30  -   -   -  11 13 mph 1016.1mb 80f 79f
1:20  -   -   -  11 16 mph 1016.1mb 80f 79f
1:10  -   -   -  11 16 mph 1016.1mb 80f 79f
1:00  -   -   -  13 16 mph 1016.3mb 80f 79f
12:50 4.5ft 7s 5s 13 18 mph 1016.3mb 80f 79f
12:40 4.5ft  -  5s 13 18 mph 1016.4mb 80f 79f
12:30  -   -   -  13 18 mph 1016.4mb 80f 80f
12:20  -   -   -  16 20 mph 1016.5mb 80f 80f
12:10  -   -   -  16 20 mph 1016.6mb 80f 80f
12:00  -   -   -  16 20 mph 1016.9mb 80f 79f
11:50 4.5ft 7s 5s 16 20 mph 1017mb 80f 79f
11:40 4.5ft  -  5s 16 20 mph 1017mb 80f 79f
11:30  -   -   -  16 20 mph 1017.1mb 80f 79f
11:20  -   -   -  16 20 mph 1017.3mb 80f 80f
11:10  -   -   -  16 20 mph 1017.4mb 80f 80f
11:00  -   -   -  16 20 mph 1017.4mb 80f 80f
10:50 4.5ft 7s 5s 16 20 mph 1017.5mb 80f 80f
10:40  -   -   -  18 20 mph 1017.5mb 80f 80f
10:30  -   -   -  18 22 mph 1017.5mb 80f 80f
10:20  -   -   -  18 22 mph 1017.8mb 80f 80f
10:10  -   -   -  18 20 mph 1017.8mb 80f 80f
10:00  -   -   -  18 22 mph 1017.8mb 80f 80f
9:50 4.5ft 8s 5s 16 20 mph 1017.9mb 80f 80f
9:40 4.5ft  -  5s 18 20 mph 1017.9mb 80f 80f
9:30  -   -   -  18 22 mph 1017.8mb 80f 79f
9:20  -   -   -  16 20 mph 1017.8mb 80f 79f
9:10  -   -   -  18 22 mph 1017.8mb 80f 79f
9:00  -   -   -  18 22 mph 1017.6mb 80f 79f
8:50 4.5ft 8s 5s 18 22 mph 1017.6mb 80f 79f
8:40 4.5ft  -  5s 18 22 mph 1017.5mb 80f 79f
8:30  -   -   -  18 22 mph 1017.5mb 80f 79f
8:20  -   -   -  18 22 mph 1017.5mb 80f 79f
8:10  -   -   -  20 27 mph 1017.4mb 80f 79f
8:00  -   -   -  16 20 mph 1017.3mb 80f 79f
7:50 4ft 8s 5s 18 22 mph 1017.1mb 80f 79f
7:40  -   -   -  18 22 mph 1017.3mb 80f 79f
7:30  -   -   -  18 22 mph 1017mb 80f 79f
7:20  -   -   -  18 22 mph 1017mb 80f 79f
7:10  -   -   -  20 25 mph 1016.9mb 80f 79f
7:00  -   -   -  20 25 mph 1016.9mb 80f 79f
6:50 4ft 8s 5s 18 20 mph 1016.9mb 80f 78f
6:40 4ft  -  5s 20 25 mph 1016.9mb 80f 78f
6:30  -   -   -  18 22 mph 1016.8mb 80f 79f
6:20  -   -   -  13 18 mph 1016.6mb 80f 78f
6:10  -   -   -  13 16 mph 1016.5mb 80f 78f
6:00  -   -   -  11 16 mph 1016.5mb 80f 78f
5:50 4ft 8s 5s 11 13 mph 1016.4mb 80f 79f
5:40  -   -   -  13 16 mph 1016.4mb 80f 78f
5:30  -   -   -  11 16 mph 1016.1mb 80f 79f
5:20  -   -   -  13 16 mph 1016mb 80f 78f
5:10  -   -   -  11 16 mph 1015.9mb 80f 78f
5:00  -   -   -  13 18 mph 1015.9mb 80f 78f
4:50 4ft 8s 5s 13 18 mph 1015.5mb 80f 78f
4:40 4ft  -  5s 16 18 mph 1015.5mb 80f 78f
4:30  -   -   -  16 20 mph 1015.4mb 80f 78f
4:20  -   -   -  13 18 mph 1015.3mb 80f 78f
4:10  -   -   -  16 20 mph 1015.1mb 80f 78f
4:00  -   -   -  13 18 mph 1015.1mb 80f 78f
3:50 3.5ft 8s 5s 16 18 mph 1015.1mb 80f 78f
3:40 3.5ft  -  5s 13 18 mph 1015.3mb 80f 78f